createdAt,value
2018-09-27T00:00:26.557Z,100829.59
2018-09-27T00:01:05.158Z,100835.80
2018-09-27T00:01:43.837Z,100841.70
2018-09-27T00:02:22.481Z,100835.50
2018-09-27T00:03:01.287Z,100840.84
2018-09-27T00:03:39.932Z,100849.68
2018-09-27T00:04:19.447Z,100843.96
2018-09-27T00:04:58.161Z,100848.78
2018-09-27T00:05:36.958Z,100846.63
2018-09-27T00:06:16.254Z,100843.09
2018-09-27T00:06:55.791Z,100849.84
2018-09-27T00:07:34.425Z,100845.50
2018-09-27T00:08:13.124Z,100850.32
2018-09-27T00:08:51.799Z,100848.64
2018-09-27T00:09:30.618Z,100845.36
2018-09-27T00:10:09.260Z,100845.88
2018-09-27T00:10:48.094Z,100845.59
2018-09-27T00:11:26.654Z,100841.25
2018-09-27T00:12:05.143Z,100845.03
2018-09-27T00:12:43.907Z,100844.74
2018-09-27T00:13:22.856Z,100840.11
2018-09-27T00:14:01.486Z,100847.63
2018-09-27T00:14:40.241Z,100843.84
2018-09-27T00:15:18.983Z,100843.55
2018-09-27T00:15:57.901Z,100843.29
2018-09-27T00:16:36.623Z,100844.67
2018-09-27T00:17:15.336Z,100844.67
2018-09-27T00:17:54.005Z,100845.22
2018-09-27T00:18:32.387Z,100842.84
2018-09-27T00:19:10.930Z,100855.48
2018-09-27T00:19:49.804Z,100853.29
2018-09-27T00:20:28.119Z,100856.76
2018-09-27T00:21:06.477Z,100854.02
2018-09-27T00:21:45.033Z,100859.68
2018-09-27T00:22:23.230Z,100858.55
2018-09-27T00:23:01.505Z,100857.71
2018-09-27T00:23:40.584Z,100863.36
2018-09-27T00:24:18.929Z,100856.31
2018-09-27T00:24:56.857Z,100859.02
2018-09-27T00:25:36.437Z,100857.59
2018-09-27T00:26:15.244Z,100863.21
2018-09-27T00:26:53.183Z,100859.12
2018-09-27T00:27:31.373Z,100860.13
2018-09-27T00:28:09.425Z,100861.48
2018-09-27T00:28:47.357Z,100860.89
2018-09-27T00:29:25.759Z,100863.84
2018-09-27T00:30:03.678Z,100870.02
2018-09-27T00:30:41.591Z,100864.02
2018-09-27T00:31:19.785Z,100870.73
2018-09-27T00:31:57.694Z,100874.25
2018-09-27T00:32:35.520Z,100871.55
2018-09-27T00:33:13.533Z,100871.80
2018-09-27T00:33:51.438Z,100872.86
2018-09-27T00:34:29.294Z,100876.02
2018-09-27T00:35:07.369Z,100881.13
2018-09-27T00:35:45.229Z,100879.95
2018-09-27T00:36:23.977Z,100879.86
2018-09-27T00:37:02.101Z,100879.19
2018-09-27T00:37:40.074Z,100880.23
2018-09-27T00:38:17.947Z,100883.72
2018-09-27T00:38:55.853Z,100876.71
2018-09-27T00:39:33.675Z,100890.36
2018-09-27T00:40:11.658Z,100873.32
2018-09-27T00:40:49.750Z,100883.45
2018-09-27T00:41:27.780Z,100887.41
2018-09-27T00:42:05.686Z,100884.86
2018-09-27T00:42:43.615Z,100878.80
2018-09-27T00:43:21.695Z,100886.05
2018-09-27T00:43:59.435Z,100876.85
2018-09-27T00:44:37.293Z,100887.02
2018-09-27T00:45:16.473Z,100888.87
2018-09-27T00:45:54.345Z,100890.66
2018-09-27T00:46:32.146Z,100892.22
2018-09-27T00:47:09.955Z,100887.03
2018-09-27T00:47:48.040Z,100880.27
2018-09-27T00:48:26.075Z,100886.88
2018-09-27T00:49:03.904Z,100882.77
2018-09-27T00:49:42.002Z,100897.06
2018-09-27T00:50:19.827Z,100889.69
2018-09-27T00:50:57.605Z,100890.69
2018-09-27T00:51:35.620Z,100891.41
2018-09-27T00:52:13.758Z,100889.70
2018-09-27T00:52:52.422Z,100888.23
2018-09-27T00:53:30.243Z,100894.09
2018-09-27T00:54:08.042Z,100893.74
2018-09-27T00:54:45.912Z,100893.45
2018-09-27T00:55:24.891Z,100890.87
2018-09-27T00:56:02.647Z,100891.62
2018-09-27T00:56:40.618Z,100889.91
2018-09-27T00:57:18.430Z,100889.54
2018-09-27T00:57:57.702Z,100890.56
2018-09-27T00:58:35.580Z,100888.05
2018-09-27T00:59:14.319Z,100890.70
2018-09-27T00:59:52.489Z,100888.73
2018-09-27T01:00:30.421Z,100885.90
2018-09-27T01:01:08.454Z,100885.28
2018-09-27T01:01:46.244Z,100889.02
2018-09-27T01:02:24.103Z,100892.72
2018-09-27T01:03:01.997Z,100892.59
2018-09-27T01:03:39.844Z,100896.33
2018-09-27T01:04:18.740Z,100893.73
2018-09-27T01:04:56.524Z,100897.22
2018-09-27T01:05:34.406Z,100895.24
2018-09-27T01:06:12.492Z,100899.56
2018-09-27T01:06:50.286Z,100897.34
2018-09-27T01:07:28.122Z,100902.39
2018-09-27T01:08:06.152Z,100905.84
2018-09-27T01:08:44.001Z,100904.98
2018-09-27T01:09:22.741Z,100902.52
2018-09-27T01:10:00.944Z,100907.63
2018-09-27T01:10:38.805Z,100905.41
2018-09-27T01:11:16.761Z,100907.02
2018-09-27T01:11:54.676Z,100905.63
2018-09-27T01:12:32.433Z,100911.30
2018-09-27T01:13:10.249Z,100910.92
2018-09-27T01:13:48.229Z,100915.73
2018-09-27T01:14:26.276Z,100912.70
2018-09-27T01:15:04.478Z,100917.20
2018-09-27T01:15:43.471Z,100911.95
2018-09-27T01:16:21.286Z,100919.22
2018-09-27T01:17:00.089Z,100911.08
2018-09-27T01:17:37.905Z,100914.84
2018-09-27T01:18:17.802Z,100918.04
2018-09-27T01:18:55.787Z,100916.62
2018-09-27T01:19:33.686Z,100913.03
2018-09-27T01:20:11.577Z,100919.44
2018-09-27T01:20:49.435Z,100914.50
2018-09-27T01:21:27.494Z,100915.48
2018-09-27T01:22:05.311Z,100917.84
2018-09-27T01:22:44.424Z,100912.27
2018-09-27T01:23:22.280Z,100914.61
2018-09-27T01:24:00.127Z,100912.63
2018-09-27T01:24:38.047Z,100915.27
2018-09-27T01:25:16.122Z,100916.55
2018-09-27T01:25:53.911Z,100913.73
2018-09-27T01:26:31.686Z,100916.93
2018-09-27T01:27:09.509Z,100914.34
2018-09-27T01:27:48.497Z,100912.84
2018-09-27T01:28:27.485Z,100919.48
2018-09-27T01:29:05.325Z,100924.80
2018-09-27T01:29:43.177Z,100923.86
2018-09-27T01:30:21.254Z,100921.55
2018-09-27T01:31:00.098Z,100930.36
2018-09-27T01:31:38.019Z,100932.64
2018-09-27T01:32:17.689Z,100931.92
2018-09-27T01:32:55.585Z,100928.81
2018-09-27T01:33:34.469Z,100935.81
2018-09-27T01:34:12.290Z,100937.89
2018-09-27T01:34:50.363Z,100937.50
2018-09-27T01:35:28.312Z,100940.09
2018-09-27T01:36:06.381Z,100938.09
2018-09-27T01:36:44.689Z,100939.13
2018-09-27T01:37:22.740Z,100937.22
2018-09-27T01:38:00.673Z,100943.13
2018-09-27T01:38:38.648Z,100946.34
2018-09-27T01:39:16.468Z,100939.45
2018-09-27T01:39:54.415Z,100943.45
2018-09-27T01:40:32.278Z,100942.41
2018-09-27T01:41:10.794Z,100943.14
2018-09-27T01:41:48.801Z,100944.66
2018-09-27T01:42:26.881Z,100945.17
2018-09-27T01:43:04.733Z,100942.21
2018-09-27T01:43:42.541Z,100940.77
2018-09-27T01:44:20.437Z,100947.97
2018-09-27T01:44:58.528Z,100954.13
2018-09-27T01:45:36.337Z,100949.97
2018-09-27T01:46:14.223Z,100951.81
2018-09-27T01:46:52.192Z,100948.80
2018-09-27T01:47:30.995Z,100954.08
2018-09-27T01:48:08.806Z,100952.10
2018-09-27T01:48:46.957Z,100956.66
2018-09-27T01:49:25.733Z,100953.54
2018-09-27T01:50:03.795Z,100956.26
2018-09-27T01:50:41.865Z,100952.42
2018-09-27T01:51:19.817Z,100951.05
2018-09-27T01:51:57.815Z,100957.78
2018-09-27T01:52:35.685Z,100956.98
2018-09-27T01:53:13.733Z,100953.78
2018-09-27T01:53:51.941Z,100958.42
2018-09-27T01:54:29.820Z,100963.06
2018-09-27T01:55:07.627Z,100963.63
2018-09-27T01:55:45.457Z,100961.95
2018-09-27T01:56:23.525Z,100964.19
2018-09-27T01:57:01.466Z,100969.31
2018-09-27T01:57:39.299Z,100961.47
2018-09-27T01:58:17.932Z,100964.66
2018-09-27T01:58:55.778Z,100965.47
2018-09-27T01:59:34.416Z,100969.31
2018-09-27T02:00:12.461Z,100965.14
2018-09-27T02:00:50.342Z,100967.55
2018-09-27T02:01:29.626Z,100970.59
2018-09-27T02:02:07.687Z,100974.03
2018-09-27T02:02:45.575Z,100974.75
2018-09-27T02:03:23.540Z,100973.48
2018-09-27T02:04:01.420Z,100969.00
2018-09-27T02:04:39.229Z,100977.08
2018-09-27T02:05:17.078Z,100974.36
2018-09-27T02:05:55.160Z,100977.47
2018-09-27T02:06:34.109Z,100972.98
2018-09-27T02:07:12.093Z,100975.80
2018-09-27T02:07:49.944Z,100972.13
2018-09-27T02:08:27.855Z,100978.62
2018-09-27T02:09:07.614Z,100977.97
2018-09-27T02:09:45.689Z,100975.39
2018-09-27T02:10:23.665Z,100974.27
2018-09-27T02:11:01.484Z,100978.27
2018-09-27T02:11:39.726Z,100969.63
2018-09-27T02:12:17.597Z,100965.13
2018-09-27T02:12:55.478Z,100970.66
2018-09-27T02:13:35.080Z,100960.38
2018-09-27T02:14:14.022Z,100968.65
2018-09-27T02:14:51.900Z,100963.20
2018-09-27T02:15:29.765Z,100965.27
2018-09-27T02:16:07.838Z,100961.66
2018-09-27T02:16:45.706Z,100966.88
2018-09-27T02:17:24.819Z,100972.32
2018-09-27T02:18:02.669Z,100970.63
2018-09-27T02:18:40.545Z,100969.50
2018-09-27T02:19:18.465Z,100967.02
2018-09-27T02:19:56.537Z,100973.73
2018-09-27T02:20:34.406Z,100969.41
2018-09-27T02:21:12.398Z,100974.86
2018-09-27T02:21:50.517Z,100973.09
2018-09-27T02:22:28.424Z,100969.94
2018-09-27T02:23:06.424Z,100977.02
2018-09-27T02:23:44.292Z,100973.91
2018-09-27T02:24:22.334Z,100971.89
2018-09-27T02:25:00.215Z,100973.88
2018-09-27T02:25:38.062Z,100972.89
2018-09-27T02:26:16.680Z,100972.23
2018-09-27T02:26:54.650Z,100977.52
2018-09-27T02:27:32.525Z,100971.74
2018-09-27T02:28:10.613Z,100970.28
2018-09-27T02:28:48.483Z,100977.48
2018-09-27T02:29:26.629Z,100976.67
2018-09-27T02:30:04.569Z,100976.54
2018-09-27T02:30:42.542Z,100978.70
2018-09-27T02:31:20.472Z,100977.10
2018-09-27T02:31:58.472Z,100976.67
2018-09-27T02:32:36.507Z,100976.91
2018-09-27T02:33:14.370Z,100980.25
2018-09-27T02:33:52.171Z,100975.17
2018-09-27T02:34:30.025Z,100979.99
2018-09-27T02:35:07.880Z,100975.80
2018-09-27T02:35:45.668Z,100969.72
2018-09-27T02:36:23.591Z,100974.18
2018-09-27T02:37:01.501Z,100968.69
2018-09-27T02:37:40.605Z,100978.70
2018-09-27T02:38:19.752Z,100980.53
2018-09-27T02:38:57.786Z,100976.81
2018-09-27T02:39:36.569Z,100976.71
2018-09-27T02:40:14.396Z,100970.59
2018-09-27T02:40:52.272Z,100969.47
2018-09-27T02:41:30.077Z,100975.42
2018-09-27T02:42:08.939Z,100974.28
2018-09-27T02:42:46.786Z,100975.69
2018-09-27T02:43:29.342Z,100973.76
2018-09-27T02:44:07.321Z,100973.79
2018-09-27T02:44:45.322Z,100979.61
2018-09-27T02:45:23.392Z,100977.84
2018-09-27T02:46:01.248Z,100970.81
2018-09-27T02:46:39.200Z,100979.73
2018-09-27T02:47:18.732Z,100978.27
2018-09-27T02:47:56.672Z,100973.14
2018-09-27T02:48:34.683Z,100978.11
2018-09-27T02:49:12.581Z,100976.74
2018-09-27T02:49:53.932Z,100972.75
2018-09-27T02:50:32.109Z,100978.50
2018-09-27T02:51:09.964Z,100972.47
2018-09-27T02:51:47.876Z,100977.23
2018-09-27T02:52:26.947Z,100973.87
2018-09-27T02:53:04.909Z,100975.52
2018-09-27T02:53:43.933Z,100972.12
2018-09-27T02:54:21.681Z,100973.14
2018-09-27T02:54:59.535Z,100976.91
2018-09-27T02:55:37.424Z,100976.70
2018-09-27T02:56:15.846Z,100971.02
2018-09-27T02:56:53.672Z,100973.80
2018-09-27T02:57:31.697Z,100972.69
2018-09-27T02:58:10.464Z,100971.14
2018-09-27T02:58:48.251Z,100971.64
2018-09-27T02:59:26.082Z,100969.26
2018-09-27T03:00:04.875Z,100967.78
2018-09-27T03:00:43.756Z,100974.16
2018-09-27T03:01:21.875Z,100969.95
2018-09-27T03:01:59.766Z,100974.97
2018-09-27T03:02:37.736Z,100973.08
2018-09-27T03:03:18.294Z,100972.84
2018-09-27T03:03:57.915Z,100968.52
2018-09-27T03:04:35.887Z,100967.27
2018-09-27T03:05:14.670Z,100970.34
2018-09-27T03:05:52.800Z,100970.12
2018-09-27T03:06:31.026Z,100972.34
2018-09-27T03:07:08.946Z,100964.27
2018-09-27T03:07:47.929Z,100964.41
2018-09-27T03:08:25.808Z,100962.14
2018-09-27T03:09:04.544Z,100962.65
2018-09-27T03:09:43.258Z,100963.73
2018-09-27T03:10:21.162Z,100963.45
2018-09-27T03:10:58.954Z,100967.66
2018-09-27T03:11:36.727Z,100957.66
2018-09-27T03:12:14.660Z,100961.58
2018-09-27T03:12:52.666Z,100955.63
2018-09-27T03:13:30.566Z,100955.63
2018-09-27T03:14:08.864Z,100952.17
2018-09-27T03:14:46.934Z,100959.91
2018-09-27T03:15:24.779Z,100958.54
2018-09-27T03:16:02.938Z,100956.27
2018-09-27T03:16:40.726Z,100957.23
2018-09-27T03:17:18.698Z,100960.45
2018-09-27T03:17:56.482Z,100956.17
2018-09-27T03:18:34.266Z,100952.92
2018-09-27T03:19:12.192Z,100953.45
2018-09-27T03:19:50.513Z,100952.72
2018-09-27T03:20:28.455Z,100952.73
2018-09-27T03:21:06.397Z,100952.92
2018-09-27T03:21:44.651Z,100945.73
2018-09-27T03:22:22.423Z,100945.17
2018-09-27T03:23:00.224Z,100942.29
2018-09-27T03:23:38.360Z,100943.00
2018-09-27T03:24:16.604Z,100941.41
2018-09-27T03:24:54.401Z,100945.17
2018-09-27T03:25:32.274Z,100948.36
2018-09-27T03:26:10.405Z,100946.27
2018-09-27T03:26:48.187Z,100942.28
2018-09-27T03:27:26.107Z,100942.90
2018-09-27T03:28:04.856Z,100942.22
2018-09-27T03:28:42.671Z,100940.28
2018-09-27T03:29:20.480Z,100937.00
2018-09-27T03:29:58.265Z,100937.04
2018-09-27T03:30:36.091Z,100940.34
2018-09-27T03:31:15.028Z,100936.83
2018-09-27T03:31:53.009Z,100937.73
2018-09-27T03:32:30.941Z,100933.22
2018-09-27T03:33:09.103Z,100934.92
2018-09-27T03:33:48.414Z,100926.84
2018-09-27T03:34:26.270Z,100929.34
2018-09-27T03:35:04.129Z,100923.88
2018-09-27T03:35:42.056Z,100925.47
2018-09-27T03:36:20.732Z,100925.81
2018-09-27T03:36:58.797Z,100924.33
2018-09-27T03:37:36.735Z,100919.78
2018-09-27T03:38:14.614Z,100918.78
2018-09-27T03:38:54.465Z,100918.44
2018-09-27T03:39:32.513Z,100919.58
2018-09-27T03:40:10.617Z,100918.09
2018-09-27T03:40:48.780Z,100921.88
2018-09-27T03:41:26.635Z,100919.60
2018-09-27T03:42:04.494Z,100922.22
2018-09-27T03:42:42.222Z,100915.95
2018-09-27T03:43:20.429Z,100917.55
2018-09-27T03:43:59.463Z,100918.23
2018-09-27T03:44:37.346Z,100925.75
2018-09-27T03:45:15.493Z,100912.53
2018-09-27T03:45:53.289Z,100918.45
2018-09-27T03:46:31.397Z,100918.01
2018-09-27T03:47:09.902Z,100911.85
2018-09-27T03:47:52.349Z,100919.38
2018-09-27T03:48:37.673Z,100914.81
2018-09-27T03:49:30.494Z,100914.69
2018-09-27T03:50:08.927Z,100914.36
2018-09-27T03:50:46.721Z,100912.52
2018-09-27T03:51:24.677Z,100910.93
2018-09-27T03:52:02.568Z,100912.55
2018-09-27T03:52:40.757Z,100916.18
2018-09-27T03:53:18.661Z,100910.14
2018-09-27T03:53:56.750Z,100909.47
2018-09-27T03:54:35.546Z,100908.20
2018-09-27T03:55:14.315Z,100909.11
2018-09-27T03:55:52.255Z,100908.64
2018-09-27T03:56:35.756Z,100903.39
2018-09-27T03:59:34.661Z,100906.33
2018-09-27T04:00:16.660Z,100898.80
2018-09-27T04:00:56.625Z,100894.56
2018-09-27T04:01:36.990Z,100890.56
2018-09-27T04:02:15.049Z,100891.13
2018-09-27T04:02:52.913Z,100891.03
2018-09-27T04:03:30.787Z,100880.98
2018-09-27T04:04:09.561Z,100886.45
2018-09-27T04:04:48.415Z,100885.78
2018-09-27T04:05:26.365Z,100880.75
2018-09-27T04:06:04.208Z,100882.80
2018-09-27T04:06:49.315Z,100875.05
2018-09-27T04:07:28.138Z,100870.25
2018-09-27T04:08:07.709Z,100871.84
2018-09-27T04:08:51.167Z,100870.47
2018-09-27T04:09:35.456Z,100866.84
2018-09-27T04:10:14.285Z,100860.70
2018-09-27T04:10:52.177Z,100863.88
2018-09-27T04:11:30.101Z,100861.59
2018-09-27T04:12:08.484Z,100853.60
2018-09-27T04:12:46.360Z,100856.81
2018-09-27T04:13:24.298Z,100854.75
2018-09-27T04:14:02.123Z,100854.08
2018-09-27T04:14:40.833Z,100854.97
2018-09-27T04:15:19.091Z,100855.66
2018-09-27T04:15:58.173Z,100850.06
2018-09-27T04:16:54.481Z,100853.78
2018-09-27T04:17:32.364Z,100852.50
2018-09-27T04:18:10.449Z,100849.77
2018-09-27T04:18:49.389Z,100842.22
2018-09-27T04:19:27.421Z,100847.37
2018-09-27T04:20:05.249Z,100843.23
2018-09-27T04:20:52.476Z,100843.90
2018-09-27T04:21:30.280Z,100837.98
2018-09-27T04:22:08.500Z,100834.80
2018-09-27T04:22:50.074Z,100840.94
2018-09-27T04:23:31.192Z,100834.56
2018-09-27T04:24:14.233Z,100833.41
2018-09-27T04:25:12.622Z,100833.73
2018-09-27T04:26:00.422Z,100835.19
2018-09-27T04:26:38.278Z,100836.98
2018-09-27T04:27:16.192Z,100829.64
2018-09-27T04:27:54.267Z,100831.59
2018-09-27T04:28:32.171Z,100828.19
2018-09-27T04:29:10.131Z,100829.64
2018-09-27T04:29:48.004Z,100830.58
2018-09-27T04:30:25.897Z,100825.78
2018-09-27T04:31:03.748Z,100830.11
2018-09-27T04:31:41.781Z,100826.23
2018-09-27T04:32:23.512Z,100823.92
2018-09-27T04:33:08.621Z,100818.66
2018-09-27T04:33:49.138Z,100819.38
2018-09-27T04:34:27.425Z,100825.86
2018-09-27T04:35:11.708Z,100820.88
2018-09-27T04:35:54.184Z,100820.22
2018-09-27T04:36:31.965Z,100818.19
2018-09-27T04:37:12.384Z,100815.97
2018-09-27T04:38:00.774Z,100813.98
2018-09-27T04:38:38.652Z,100816.55
2018-09-27T04:39:23.967Z,100813.36
2018-09-27T04:40:01.970Z,100810.75
2018-09-27T04:40:39.837Z,100813.16
2018-09-27T04:41:17.945Z,100816.11
2018-09-27T04:41:56.392Z,100813.02
2018-09-27T04:42:34.274Z,100804.68
2018-09-27T04:43:12.188Z,100807.03
2018-09-27T04:43:50.135Z,100809.30
2018-09-27T04:44:27.956Z,100809.87
2018-09-27T04:45:09.604Z,100805.06
2018-09-27T04:45:52.172Z,100804.70
2018-09-27T04:46:44.681Z,100801.64
2018-09-27T04:47:26.166Z,100806.45
2018-09-27T04:48:04.070Z,100804.31
2018-09-27T04:48:41.964Z,100800.31
2018-09-27T04:49:35.285Z,100800.88
2018-09-27T04:50:18.317Z,100800.86
2018-09-27T04:50:56.361Z,100796.76
2018-09-27T04:51:35.477Z,100794.95
2018-09-27T04:52:13.441Z,100785.62
2018-09-27T04:52:52.545Z,100789.36
2018-09-27T04:53:30.619Z,100785.05
2018-09-27T04:54:09.454Z,100789.25
2018-09-27T04:54:47.525Z,100786.95
2018-09-27T04:55:25.502Z,100789.64
2018-09-27T04:56:05.978Z,100789.86
2018-09-27T04:56:46.855Z,100785.73
2018-09-27T04:57:39.240Z,100781.23
2018-09-27T04:58:21.469Z,100787.42
2018-09-27T04:58:59.260Z,100779.86
2018-09-27T04:59:37.162Z,100779.82
2018-09-27T05:03:17.283Z,100769.34
2018-09-27T05:03:55.251Z,100766.88
2018-09-27T05:04:34.166Z,100765.48
2018-09-27T05:05:13.054Z,100766.34
2018-09-27T05:05:50.823Z,100760.45
2018-09-27T05:06:28.846Z,100760.73
2018-09-27T05:07:06.713Z,100755.20
2018-09-27T05:07:45.054Z,100751.98
2018-09-27T05:08:23.372Z,100754.39
2018-09-27T05:09:01.225Z,100753.48
2018-09-27T05:09:39.266Z,100753.13
2018-09-27T05:10:17.141Z,100752.76
2018-09-27T05:10:55.209Z,100748.64
2018-09-27T05:11:33.099Z,100747.83
2018-09-27T05:12:11.081Z,100751.79
2018-09-27T05:12:53.072Z,100749.66
2018-09-27T05:13:30.854Z,100747.30
2018-09-27T05:14:08.706Z,100745.91
2018-09-27T05:14:46.737Z,100742.02
2018-09-27T05:15:24.909Z,100739.44
2018-09-27T05:16:02.747Z,100742.26
2018-09-27T05:16:41.945Z,100735.41
2018-09-27T05:17:20.057Z,100732.79
2018-09-27T05:17:57.978Z,100730.22
2018-09-27T05:18:35.757Z,100736.59
2018-09-27T05:19:13.727Z,100728.86
2018-09-27T05:19:51.593Z,100735.20
2018-09-27T05:20:30.069Z,100725.41
2018-09-27T05:21:08.177Z,100729.27
2018-09-27T05:21:47.006Z,100726.53
2018-09-27T05:22:24.991Z,100718.36
2018-09-27T05:23:02.886Z,100724.11
2018-09-27T05:23:40.718Z,100717.87
2018-09-27T05:24:19.704Z,100726.04
2018-09-27T05:24:57.492Z,100721.16
2018-09-27T05:25:35.568Z,100722.82
2018-09-27T05:26:13.564Z,100716.21
2018-09-27T05:26:55.523Z,100713.92
2018-09-27T05:27:34.584Z,100716.27
2018-09-27T05:28:13.986Z,100708.17
2018-09-27T05:28:52.479Z,100712.92
2018-09-27T05:29:31.525Z,100709.92
2018-09-27T05:30:10.090Z,100709.13
2018-09-27T05:30:49.399Z,100703.31
2018-09-27T05:31:29.572Z,100704.30
2018-09-27T05:32:09.980Z,100708.05
2018-09-27T05:32:48.009Z,100705.66
2018-09-27T05:33:26.101Z,100702.47
2018-09-27T05:34:04.000Z,100699.28
2018-09-27T05:34:42.829Z,100697.22
2018-09-27T05:35:30.616Z,100696.98
2018-09-27T05:36:08.406Z,100700.17
2018-09-27T05:36:46.482Z,100691.77
2018-09-27T05:37:24.287Z,100699.61
2018-09-27T05:38:02.276Z,100696.79
2018-09-27T05:38:40.154Z,100693.83
2018-09-27T05:39:17.970Z,100690.64
2018-09-27T05:39:55.831Z,100689.94
2018-09-27T05:40:33.613Z,100688.58
2018-09-27T05:41:11.410Z,100683.70
2018-09-27T05:41:50.119Z,100688.02
2018-09-27T05:42:28.042Z,100686.98
2018-09-27T05:43:07.458Z,100683.70
2018-09-27T05:43:48.666Z,100682.44
2018-09-27T05:44:28.256Z,100679.48
2018-09-27T05:45:08.036Z,100680.84
2018-09-27T05:45:47.386Z,100680.84
2018-09-27T05:46:25.348Z,100678.12
2018-09-27T05:47:03.193Z,100677.22
2018-09-27T05:47:41.130Z,100676.98
2018-09-27T05:48:19.015Z,100674.43
2018-09-27T05:48:56.893Z,100671.94
2018-09-27T05:49:35.161Z,100668.57
2018-09-27T05:50:13.323Z,100662.23
2018-09-27T05:50:51.237Z,100670.56
2018-09-27T05:51:30.248Z,100661.34
2018-09-27T05:52:09.887Z,100663.83
2018-09-27T05:52:47.758Z,100667.34
2018-09-27T05:53:28.247Z,100656.45
2018-09-27T05:54:06.222Z,100659.17
2018-09-27T05:54:44.384Z,100657.81
2018-09-27T05:55:22.195Z,100655.09
2018-09-27T05:56:00.199Z,100655.33
2018-09-27T05:56:38.117Z,100648.95
2018-09-27T05:57:15.979Z,100649.18
2018-09-27T05:57:54.625Z,100643.03
2018-09-27T05:58:33.641Z,100644.92
2018-09-27T05:59:12.101Z,100647.88
2018-09-27T05:59:50.017Z,100644.69
2018-09-27T06:00:27.887Z,100637.19
2018-09-27T06:01:06.954Z,100642.96
2018-09-27T06:01:44.825Z,100643.07
2018-09-27T06:02:22.633Z,100643.00
2018-09-27T06:03:00.601Z,100638.34
2018-09-27T06:03:38.619Z,100636.72
2018-09-27T06:04:18.892Z,100642.17
2018-09-27T06:04:58.626Z,100639.21
2018-09-27T06:05:37.497Z,100637.78
2018-09-27T06:06:15.577Z,100636.22
2018-09-27T06:06:53.453Z,100640.41
2018-09-27T06:07:31.261Z,100637.78
2018-09-27T06:08:09.145Z,100641.07
2018-09-27T06:08:47.013Z,100641.84
2018-09-27T06:09:25.859Z,100634.89
2018-09-27T06:10:03.838Z,100639.55
2018-09-27T06:10:42.557Z,100637.72
2018-09-27T06:11:20.513Z,100636.13
2018-09-27T06:11:58.285Z,100636.77
2018-09-27T06:12:36.137Z,100633.23
2018-09-27T06:13:14.029Z,100629.45
2018-09-27T06:13:51.850Z,100632.28
2018-09-27T06:14:29.866Z,100628.62
2018-09-27T06:15:07.928Z,100627.70
2018-09-27T06:15:45.968Z,100623.71
2018-09-27T06:16:24.008Z,100620.52
2018-09-27T06:17:01.822Z,100618.92
2018-09-27T06:17:40.521Z,100620.22
2018-09-27T06:18:18.312Z,100621.58
2018-09-27T06:18:56.174Z,100618.39
2018-09-27T06:19:34.367Z,100619.19
2018-09-27T06:20:14.015Z,100620.88
2018-09-27T06:20:53.209Z,100620.98
2018-09-27T06:21:31.604Z,100615.87
2018-09-27T06:22:09.783Z,100611.98
2018-09-27T06:22:47.747Z,100612.77
2018-09-27T06:23:25.580Z,100615.45
2018-09-27T06:24:03.421Z,100612.73
2018-09-27T06:24:41.604Z,100605.37
2018-09-27T06:25:19.468Z,100603.54
2018-09-27T06:25:57.295Z,100604.67
2018-09-27T06:26:35.271Z,100605.20
2018-09-27T06:27:13.116Z,100600.51
2018-09-27T06:27:50.916Z,100605.12
2018-09-27T06:28:29.794Z,100604.66
2018-09-27T06:29:07.932Z,100602.59
2018-09-27T06:29:45.829Z,100601.56
2018-09-27T06:30:24.539Z,100603.95
2018-09-27T06:31:02.385Z,100598.28
2018-09-27T06:31:40.317Z,100594.53
2018-09-27T06:32:18.357Z,100598.84
2018-09-27T06:32:56.300Z,100592.94
2018-09-27T06:33:34.228Z,100603.11
2018-09-27T06:34:12.319Z,100605.27
2018-09-27T06:34:50.164Z,100598.33
2018-09-27T06:35:29.126Z,100596.17
2018-09-27T06:36:07.064Z,100594.41
2018-09-27T06:36:44.932Z,100594.64
2018-09-27T06:37:23.070Z,100594.31
2018-09-27T06:38:01.018Z,100591.69
2018-09-27T06:38:39.073Z,100588.97
2018-09-27T06:39:17.045Z,100588.73
2018-09-27T06:39:54.969Z,100583.62
2018-09-27T06:40:32.859Z,100583.29
2018-09-27T06:41:10.767Z,100586.01
2018-09-27T06:41:49.476Z,100580.34
2018-09-27T06:42:27.326Z,100579.63
2018-09-27T06:43:05.257Z,100578.50
2018-09-27T06:43:43.137Z,100581.55
2018-09-27T06:44:21.946Z,100577.38
2018-09-27T06:45:00.629Z,100578.63
2018-09-27T06:45:38.631Z,100576.52
2018-09-27T06:46:16.535Z,100566.16
2018-09-27T06:46:54.444Z,100575.48
2018-09-27T06:47:32.467Z,100576.61
2018-09-27T06:48:10.638Z,100581.16
2018-09-27T06:48:48.498Z,100577.31
2018-09-27T06:49:26.366Z,100570.08
2018-09-27T06:50:04.273Z,100577.92
2018-09-27T06:50:42.089Z,100570.03
2018-09-27T06:51:20.216Z,100566.74
2018-09-27T06:51:58.123Z,100571.29
2018-09-27T06:52:37.041Z,100571.31
2018-09-27T06:53:14.948Z,100559.53
2018-09-27T06:53:53.713Z,100562.15
2018-09-27T06:54:33.297Z,100562.95
2018-09-27T06:55:11.633Z,100559.08
2018-09-27T06:55:50.113Z,100563.31
2018-09-27T06:56:28.077Z,100557.50
2018-09-27T06:57:06.105Z,100559.13
2018-09-27T06:57:44.338Z,100553.53
2018-09-27T06:58:22.124Z,100553.09
2018-09-27T06:59:00.044Z,100553.33
2018-09-27T06:59:38.827Z,100555.48
2018-09-27T07:00:17.209Z,100545.72
2018-09-27T07:00:55.108Z,100549.05
2018-09-27T07:01:33.064Z,100542.25
2018-09-27T07:02:10.923Z,100541.63
2018-09-27T07:02:48.769Z,100538.92
2018-09-27T07:03:26.578Z,100538.91
2018-09-27T07:04:04.620Z,100536.61
2018-09-27T07:04:42.832Z,100532.42
2018-09-27T07:05:20.739Z,100535.84
2018-09-27T07:05:58.667Z,100540.27
2018-09-27T07:06:36.598Z,100533.45
2018-09-27T07:07:14.465Z,100531.87
2018-09-27T07:07:52.296Z,100529.23
2018-09-27T07:08:30.263Z,100525.59
2018-09-27T07:09:10.626Z,100529.38
2018-09-27T07:09:48.705Z,100528.46
2018-09-27T07:10:26.527Z,100523.55
2018-09-27T07:11:05.241Z,100520.70
2018-09-27T07:11:43.245Z,100520.45
2018-09-27T07:12:21.490Z,100514.87
2018-09-27T07:12:59.544Z,100514.75
2018-09-27T07:13:37.651Z,100514.85
2018-09-27T07:14:16.526Z,100508.59
2018-09-27T07:14:54.543Z,100515.39
2018-09-27T07:15:32.440Z,100514.70
2018-09-27T07:16:10.392Z,100512.63
2018-09-27T07:16:48.309Z,100512.02
2018-09-27T07:17:26.287Z,100508.46
2018-09-27T07:18:04.724Z,100505.50
2018-09-27T07:18:42.801Z,100512.07
2018-09-27T07:19:21.949Z,100499.86
2018-09-27T07:19:59.878Z,100505.67
2018-09-27T07:20:38.237Z,100496.77
2018-09-27T07:21:16.319Z,100490.63
2018-09-27T07:21:54.212Z,100497.42
2018-09-27T07:22:32.185Z,100498.05
2018-09-27T07:23:10.159Z,100495.09
2018-09-27T07:23:47.886Z,100493.72
2018-09-27T07:24:25.784Z,100490.20
2018-09-27T07:25:03.745Z,100487.33
2018-09-27T07:25:41.777Z,100490.50